Time;durP1;ratioP1;P1;durP2;ratioP2;P2;SDS_P1;SDS_P2;PMS_P1;PMS_P2;Temp;Humidity;BMP_temperature;BMP_pressure;BME280_temperature;BME280_humidity;BME280_pressure;Samples;Min_cycle;Max_cycle;Signal;HPM_P1;HPM_P2
2023/03/29 00:00:27;;;;;;;6.70;3.80;;;;;;;-3.91;68.99;100898.41;102610;278;120340;-53
2023/03/29 00:03:23;;;;;;;8.00;3.30;;;;;;;-3.94;69.11;100900.84;102487;278;107337;-53
2023/03/29 00:06:04;;;;;;;9.50;4.10;;;;;;;-3.98;69.13;100902.46;102631;278;114820;-52
2023/03/29 00:08:44;;;;;;;7.80;3.50;;;;;;;-3.99;69.15;100904.68;102622;266;94953;-53
2023/03/29 00:11:28;;;;;;;5.40;3.10;;;;;;;-4.05;69.21;100912.05;102632;278;98217;-58
2023/03/29 00:14:07;;;;;;;7.40;3.50;;;;;;;-4.09;69.29;100910.67;102561;278;118892;-58
2023/03/29 00:16:48;;;;;;;7.00;3.20;;;;;;;-4.11;69.28;100914.50;102645;278;105632;-57
2023/03/29 00:19:24;;;;;;;9.10;3.10;;;;;;;-4.13;69.45;100912.85;102560;278;114433;-57
2023/03/29 00:22:00;;;;;;;6.70;3.10;;;;;;;-4.16;69.49;100909.64;102607;278;96687;-52
2023/03/29 00:24:46;;;;;;;5.60;3.10;;;;;;;-4.12;69.65;100912.80;102548;278;97608;-52
2023/03/29 00:27:29;;;;;;;5.70;3.00;;;;;;;-4.12;69.73;100909.27;102586;278;119564;-57
2023/03/29 00:30:10;;;;;;;7.60;3.30;;;;;;;-4.13;69.80;100911.59;102621;278;105849;-58
2023/03/29 00:32:45;;;;;;;7.10;3.50;;;;;;;-4.11;69.89;100909.92;102596;278;113471;-53
2023/03/29 00:35:30;;;;;;;6.90;3.40;;;;;;;-4.12;69.82;100909.09;102538;278;94924;-53
2023/03/29 00:38:09;;;;;;;5.30;3.10;;;;;;;-4.13;69.88;100912.14;102584;278;97647;-52
2023/03/29 00:40:52;;;;;;;8.90;3.20;;;;;;;-4.16;69.88;100911.40;102611;278;119832;-52
2023/03/29 00:44:01;;;;;;;5.70;3.30;;;;;;;-4.23;69.87;100908.41;102591;278;106007;-56
2023/03/29 00:46:46;;;;;;;7.10;3.30;;;;;;;-4.30;69.90;100910.44;102546;278;114305;-56
2023/03/29 00:49:25;;;;;;;;;;;;;;;-4.34;69.98;100911.33;102597;278;94821;-58
2023/03/29 00:52:12;;;;;;;6.20;3.60;;;;;;;-4.35;70.00;100911.35;102595;278;96926;-53
2023/03/29 00:54:52;;;;;;;8.70;3.40;;;;;;;-4.32;70.06;100911.41;102583;278;118328;-53
2023/03/29 00:57:32;;;;;;;5.50;3.30;;;;;;;-4.28;70.05;100909.60;102540;277;106025;-57
2023/03/29 01:00:12;;;;;;;7.90;3.00;;;;;;;-4.33;70.04;100909.15;102539;278;114702;-57
2023/03/29 01:02:58;;;;;;;7.00;3.20;;;;;;;-4.38;70.19;100906.77;102536;277;95079;-53
2023/03/29 01:05:44;;;;;;;7.10;3.50;;;;;;;-4.40;70.22;100905.31;102570;278;97594;-52
2023/03/29 01:08:32;;;;;;;6.50;3.40;;;;;;;-4.45;70.34;100906.13;102549;278;120578;-51
2023/03/29 01:11:17;;;;;;;6.80;3.40;;;;;;;-4.49;70.49;100903.16;102548;266;105896;-58
2023/03/29 01:13:58;;;;;;;8.40;3.40;;;;;;;-4.48;70.49;100907.73;102592;278;114286;-58
2023/03/29 01:16:44;;;;;;;6.90;3.70;;;;;;;-4.47;70.66;100902.17;102517;278;94369;-56
2023/03/29 01:19:31;;;;;;;10.30;3.50;;;;;;;-4.45;70.62;100905.43;102555;278;98233;-56
2023/03/29 01:22:16;;;;;;;5.40;3.30;;;;;;;-4.49;70.61;100905.29;102522;278;119480;-56
2023/03/29 01:25:12;;;;;;;6.30;3.80;;;;;;;-4.48;70.66;100901.74;102557;277;104950;-56
2023/03/29 01:28:01;;;;;;;7.60;3.70;;;;;;;-4.50;70.66;100902.00;102495;278;114267;-52
2023/03/29 01:30:43;;;;;;;8.20;4.10;;;;;;;-4.50;70.69;100904.98;102506;278;93728;-51
2023/03/29 01:33:22;;;;;;;8.20;4.40;;;;;;;-4.52;70.68;100905.30;102521;279;95571;-56
2023/03/29 01:36:08;;;;;;;9.50;4.20;;;;;;;-4.48;70.70;100906.83;102539;266;119191;-53
2023/03/29 01:38:54;;;;;;;9.60;4.40;;;;;;;-4.49;70.72;100907.58;102500;278;105711;-52
2023/03/29 01:41:46;;;;;;;7.60;3.50;;;;;;;-4.46;70.77;100906.18;102528;267;114687;-52
2023/03/29 01:44:30;;;;;;;7.90;3.90;;;;;;;-4.43;70.96;100907.62;102501;278;92929;-53
2023/03/29 01:47:21;;;;;;;8.60;4.10;;;;;;;-4.38;71.07;100909.80;102515;278;96925;-57
2023/03/29 01:50:17;;;;;;;11.90;5.00;;;;;;;-4.36;71.13;100912.48;102519;278;119557;-57
2023/03/29 01:53:03;;;;;;;10.00;4.40;;;;;;;-4.39;71.07;100912.29;102554;278;104965;-58
2023/03/29 01:55:43;;;;;;;11.40;4.90;;;;;;;-4.38;71.05;100909.63;102543;278;114545;-61
2023/03/29 01:58:30;;;;;;;8.40;4.20;;;;;;;-4.46;71.03;100916.71;102529;279;92156;-52
2023/03/29 02:01:17;;;;;;;10.30;5.00;;;;;;;-4.52;71.05;100908.79;102529;278;98009;-53
2023/03/29 02:04:02;;;;;;;9.00;4.50;;;;;;;-4.59;71.06;100909.70;102548;278;119036;-53
2023/03/29 02:06:53;;;;;;;8.30;4.10;;;;;;;-4.60;71.10;100909.05;102537;278;106144;-52
2023/03/29 02:09:41;;;;;;;9.90;4.70;;;;;;;-4.65;71.13;100906.35;102462;278;114129;-52
2023/03/29 02:12:22;;;;;;;10.90;4.40;;;;;;;-4.68;71.18;100914.95;102471;278;96311;-56
2023/03/29 02:15:00;;;;;;;8.60;4.00;;;;;;;-4.69;71.34;100910.92;102523;278;98374;-56
2023/03/29 02:17:42;;;;;;;10.60;4.80;;;;;;;-4.71;71.47;100915.95;102540;279;119573;-52
2023/03/29 02:20:27;;;;;;;10.00;4.80;;;;;;;-4.71;71.52;100915.46;102525;278;106118;-51
2023/03/29 02:23:16;;;;;;;7.90;4.60;;;;;;;-4.71;71.59;100919.13;102478;278;113918;-55
2023/03/29 02:25:58;;;;;;;9.80;4.10;;;;;;;-4.70;71.66;100923.14;102511;278;93612;-54
2023/03/29 02:28:36;;;;;;;9.50;5.20;;;;;;;-4.72;71.62;100923.92;102527;278;98155;-57
2023/03/29 02:31:17;;;;;;;9.20;5.10;;;;;;;-4.76;71.76;100924.30;102523;279;120687;-57
2023/03/29 02:33:57;;;;;;;10.80;4.80;;;;;;;-4.83;71.79;100926.40;102552;279;105214;-58
2023/03/29 02:36:40;;;;;;;8.30;4.30;;;;;;;-4.88;71.73;100923.72;102553;278;113466;-52
2023/03/29 02:39:19;;;;;;;10.70;4.50;;;;;;;-4.89;71.81;100925.19;102471;278;96287;-52
2023/03/29 02:41:57;;;;;;;10.30;5.10;;;;;;;-4.97;71.83;100925.23;102481;278;98309;-56
2023/03/29 02:44:36;;;;;;;12.50;5.60;;;;;;;-5.00;71.90;100921.52;102503;279;118909;-56
2023/03/29 02:47:19;;;;;;;15.20;5.30;;;;;;;-4.96;72.10;100924.51;102529;279;106150;-58
2023/03/29 02:50:01;;;;;;;10.30;4.90;;;;;;;-4.93;72.32;100919.92;102581;278;114220;-58
2023/03/29 02:52:45;;;;;;;10.10;4.40;;;;;;;-4.94;72.31;100924.88;102551;278;93910;-57
2023/03/29 02:55:33;;;;;;;12.30;5.10;;;;;;;-4.93;72.40;100923.97;102202;279;98727;-57
2023/03/29 02:58:12;;;;;;;10.00;5.20;;;;;;;-4.91;72.51;100926.14;102508;278;119838;-53
2023/03/29 03:00:51;;;;;;;9.30;4.80;;;;;;;-4.87;72.53;100926.48;102472;278;106024;-54
2023/03/29 03:03:29;;;;;;;9.40;4.90;;;;;;;-4.90;72.52;100927.34;102530;279;114646;-52
2023/03/29 03:06:08;;;;;;;9.80;4.50;;;;;;;-4.92;72.54;100923.39;102535;279;94694;-57
2023/03/29 03:08:43;;;;;;;10.90;4.90;;;;;;;-5.01;72.60;100927.54;102583;278;97950;-57
2023/03/29 03:11:21;;;;;;;11.30;5.30;;;;;;;-5.07;72.77;100927.70;102577;278;120056;-56
2023/03/29 03:14:04;;;;;;;10.00;4.60;;;;;;;-5.12;72.83;100927.77;102522;278;106375;-57
2023/03/29 03:16:42;;;;;;;;;;;;;;;-5.13;72.94;100929.91;102521;278;114874;-57
2023/03/29 03:19:22;;;;;;;9.40;5.50;;;;;;;-5.13;73.09;100935.71;102525;279;95275;-57
2023/03/29 03:22:04;;;;;;;12.30;5.10;;;;;;;-5.09;73.11;100936.38;102523;279;96437;-51
2023/03/29 03:24:46;;;;;;;10.60;5.30;;;;;;;-5.06;73.32;100938.52;102508;279;119928;-51
2023/03/29 03:27:25;;;;;;;9.30;5.20;;;;;;;-5.01;73.49;100939.14;102520;278;105503;-57
2023/03/29 03:30:01;;;;;;;9.70;5.30;;;;;;;-4.99;73.52;100938.71;102502;278;113089;-57
2023/03/29 03:32:37;;;;;;;10.90;4.60;;;;;;;-5.08;73.53;100934.95;102527;278;93037;-57
2023/03/29 03:35:13;;;;;;;9.10;4.80;;;;;;;-5.12;73.53;100937.62;102504;278;96874;-56
2023/03/29 03:37:49;;;;;;;12.40;5.20;;;;;;;-5.17;73.53;100936.46;102532;279;119498;-56
2023/03/29 03:40:25;;;;;;;9.70;5.10;;;;;;;-5.20;73.64;100936.80;102525;278;105478;-57
2023/03/29 03:43:07;;;;;;;10.40;5.70;;;;;;;-5.27;73.73;100939.58;102500;278;114044;-57
2023/03/29 03:45:53;;;;;;;10.80;5.50;;;;;;;-5.30;73.78;100939.76;102492;278;96881;-57
2023/03/29 03:48:33;;;;;;;14.40;5.30;;;;;;;-5.26;73.98;100944.47;102518;279;97359;-53
2023/03/29 03:51:09;;;;;;;10.30;4.80;;;;;;;-5.23;74.14;100939.59;102506;279;118646;-57
2023/03/29 03:53:51;;;;;;;10.30;5.10;;;;;;;-5.12;74.26;100938.80;102629;279;105770;-59
2023/03/29 03:56:33;;;;;;;8.90;3.90;;;;;;;-5.01;74.33;100939.48;102637;278;113894;-56
2023/03/29 03:59:15;;;;;;;12.20;5.40;;;;;;;-4.97;74.43;100937.50;102481;279;94558;-56
2023/03/29 04:01:55;;;;;;;9.50;4.90;;;;;;;-4.99;74.39;100942.21;102548;279;98076;-56
2023/03/29 04:04:39;;;;;;;11.70;4.80;;;;;;;-4.98;74.57;100946.73;102500;278;120229;-56
2023/03/29 04:07:20;;;;;;;11.00;5.70;;;;;;;-4.98;74.44;100945.14;102488;278;104083;-53
2023/03/29 04:10:01;;;;;;;11.00;5.40;;;;;;;-5.01;74.51;100946.50;102457;278;114739;-52
2023/03/29 04:12:43;;;;;;;15.00;6.10;;;;;;;-5.00;74.60;100947.71;102514;278;96801;-57
2023/03/29 04:15:30;;;;;;;10.60;5.90;;;;;;;-4.96;74.74;100946.79;102517;278;98009;-58
2023/03/29 04:18:06;;;;;;;9.00;5.60;;;;;;;-4.92;74.92;100949.58;102507;278;120343;-52
2023/03/29 04:20:47;;;;;;;9.70;5.10;;;;;;;-4.88;74.97;100953.19;102526;278;105078;-52
2023/03/29 04:23:35;;;;;;;9.70;5.20;;;;;;;-4.82;75.05;100955.52;102566;278;114491;-53
2023/03/29 04:26:16;;;;;;;11.30;5.50;;;;;;;-4.76;75.18;100955.25;102490;278;94605;-53
2023/03/29 04:28:51;;;;;;;12.30;5.70;;;;;;;-4.78;75.11;100956.54;102512;278;98055;-52
2023/03/29 04:31:28;;;;;;;10.60;5.90;;;;;;;-4.83;75.16;100962.25;102517;278;118141;-53
2023/03/29 04:34:06;;;;;;;10.80;5.10;;;;;;;-4.83;75.10;100960.84;102557;279;105696;-52
2023/03/29 04:36:50;;;;;;;12.80;5.90;;;;;;;-4.79;75.30;100962.20;102476;278;114755;-53
2023/03/29 04:39:32;;;;;;;15.50;6.20;;;;;;;-4.72;75.39;100958.20;102488;278;95676;-53
2023/03/29 04:42:11;;;;;;;11.00;5.60;;;;;;;-4.67;75.52;100960.92;102518;278;97474;-56
2023/03/29 04:44:49;;;;;;;13.60;7.10;;;;;;;-4.64;75.60;100962.16;102516;278;119634;-57
2023/03/29 04:47:35;;;;;;;15.80;7.70;;;;;;;-4.60;75.64;100961.07;102549;278;105420;-58
2023/03/29 04:50:11;;;;;;;13.10;7.10;;;;;;;-4.52;75.71;100964.67;102538;278;114034;-58
2023/03/29 04:52:50;;;;;;;11.50;7.20;;;;;;;-4.49;75.73;100965.39;102421;280;94056;-52
2023/03/29 04:55:32;;;;;;;13.70;6.70;;;;;;;-4.40;75.72;100966.70;102501;278;96813;-54
2023/03/29 04:58:10;;;;;;;12.30;7.40;;;;;;;-4.34;75.78;100965.30;102492;278;119064;-54
2023/03/29 05:00:50;;;;;;;13.60;7.10;;;;;;;-4.27;75.82;100966.02;102501;279;105278;-55
2023/03/29 05:03:40;;;;;;;13.80;6.80;;;;;;;-4.09;75.90;100968.52;102515;278;114221;-59
2023/03/29 05:06:15;;;;;;;11.00;6.00;;;;;;;-3.39;76.13;100968.45;102542;278;93762;-57
2023/03/29 05:08:58;;;;;;;11.80;6.20;;;;;;;-2.51;76.09;100964.46;102547;279;97989;-58
2023/03/29 05:11:37;;;;;;;12.30;5.50;;;;;;;-1.64;75.40;100963.75;102579;278;119829;-57
2023/03/29 05:14:17;;;;;;;12.50;5.50;;;;;;;-1.12;74.65;100966.34;102770;278;104701;-58
2023/03/29 05:17:05;;;;;;;12.20;5.90;;;;;;;0.05;74.66;100964.02;102599;278;114857;-54
2023/03/29 05:19:42;;;;;;;10.00;6.00;;;;;;;1.98;74.08;100952.05;102515;278;93467;-54
2023/03/29 05:22:17;;;;;;;11.50;5.90;;;;;;;3.77;72.99;100944.11;102546;279;96332;-51
2023/03/29 05:25:02;;;;;;;11.20;6.20;;;;;;;5.45;71.98;100941.84;102546;278;118392;-53
2023/03/29 05:27:38;;;;;;;10.90;5.30;;;;;;;6.90;70.28;100939.03;102622;278;104445;-59
2023/03/29 05:30:15;;;;;;;9.80;4.80;;;;;;;7.29;67.53;100939.56;102541;278;113311;-58
2023/03/29 05:32:49;;;;;;;9.40;5.60;;;;;;;7.28;65.28;100937.16;102540;278;93487;-57
2023/03/29 05:35:28;;;;;;;10.30;6.00;;;;;;;5.97;64.24;100938.21;102519;278;97119;-56
2023/03/29 05:38:14;;;;;;;8.70;5.10;;;;;;;4.53;63.93;100948.44;102593;278;119482;-57
2023/03/29 05:40:51;;;;;;;10.70;6.30;;;;;;;3.51;64.02;100950.89;102878;278;103523;-57
2023/03/29 05:43:30;;;;;;;11.10;6.20;;;;;;;2.66;64.09;100952.36;102418;279;113443;-51
2023/03/29 05:46:07;;;;;;;10.10;6.40;;;;;;;2.05;64.51;100956.11;102556;278;92934;-57
2023/03/29 05:48:46;;;;;;;12.10;5.90;;;;;;;1.71;64.89;100958.30;102569;278;97585;-57
2023/03/29 05:51:32;;;;;;;12.30;6.60;;;;;;;1.50;65.17;100957.63;102615;278;119537;-53
2023/03/29 05:54:07;;;;;;;10.50;6.40;;;;;;;1.33;65.63;100958.27;102532;279;105347;-54
2023/03/29 05:56:51;;;;;;;13.40;6.50;;;;;;;1.98;65.83;100957.15;102524;278;112982;-58
2023/03/29 05:59:29;;;;;;;11.60;7.00;;;;;;;4.54;65.63;100947.88;102560;278;93725;-56
2023/03/29 06:02:04;;;;;;;;;;;;;;;7.10;64.80;100939.64;102622;266;96433;-57
2023/03/29 06:04:40;;;;;;;10.50;6.50;;;;;;;9.57;63.91;100934.64;102558;278;118373;-58
2023/03/29 06:07:16;;;;;;;11.60;6.50;;;;;;;11.28;62.24;100931.73;102517;279;104588;-58
2023/03/29 06:09:51;;;;;;;11.50;7.00;;;;;;;12.72;60.45;100932.08;102524;278;113466;-58
2023/03/29 06:12:31;;;;;;;11.60;5.60;;;;;;;14.00;59.16;100932.42;102557;278;93401;-58
2023/03/29 06:15:09;;;;;;;9.70;6.10;;;;;;;15.02;57.47;100927.64;102495;278;97730;-57
2023/03/29 06:17:47;;;;;;;10.00;6.10;;;;;;;15.37;54.89;100929.23;102531;278;117997;-54
2023/03/29 06:20:30;;;;;;;8.60;4.70;;;;;;;15.59;53.39;100931.48;102511;278;105698;-55
2023/03/29 06:23:08;;;;;;;8.80;5.00;;;;;;;15.73;52.81;100933.09;102509;278;114594;-57
2023/03/29 06:25:45;;;;;;;8.90;5.30;;;;;;;15.98;51.26;100936.55;102521;278;93480;-56
2023/03/29 06:28:28;;;;;;;8.30;4.80;;;;;;;16.10;50.44;100933.82;102565;278;97728;-57
2023/03/29 06:31:11;;;;;;;6.80;4.60;;;;;;;16.10;49.83;100935.13;102515;278;118112;-58
2023/03/29 06:33:48;;;;;;;6.40;4.40;;;;;;;15.97;48.44;100933.98;102518;278;105253;-58
2023/03/29 06:36:34;;;;;;;6.70;4.80;;;;;;;15.58;47.68;100937.39;102553;279;112924;-59
2023/03/29 06:39:15;;;;;;;8.70;4.90;;;;;;;15.39;46.92;100939.16;102497;279;93438;-59
2023/03/29 06:42:00;;;;;;;7.90;4.60;;;;;;;14.15;46.53;100943.53;102553;278;98076;-59
2023/03/29 06:44:40;;;;;;;7.30;4.60;;;;;;;12.84;46.85;100952.22;102532;278;118995;-59
2023/03/29 06:47:21;;;;;;;7.90;4.20;;;;;;;12.22;47.16;100955.35;102505;279;105307;-54
2023/03/29 06:50:02;;;;;;;6.90;4.00;;;;;;;12.77;47.94;100957.48;102481;278;114808;-53
2023/03/29 06:52:41;;;;;;;6.80;3.90;;;;;;;13.93;46.73;100951.23;102530;278;93771;-58
2023/03/29 06:55:19;;;;;;;6.50;4.20;;;;;;;14.83;46.17;100952.48;102566;278;97583;-60
2023/03/29 06:57:59;;;;;;;5.90;3.80;;;;;;;14.87;45.96;100958.95;102548;278;118945;-54
2023/03/29 07:00:37;;;;;;;5.80;4.00;;;;;;;15.62;45.08;100953.80;102519;278;105243;-54
2023/03/29 07:03:22;;;;;;;6.80;4.00;;;;;;;16.10;44.10;100954.99;102534;278;114658;-59
2023/03/29 07:06:03;;;;;;;;;;;;;;;16.12;44.37;100953.72;102528;278;93728;-64
2023/03/29 07:08:45;;;;;;;7.40;4.30;;;;;;;16.64;44.42;100953.79;102398;279;97769;-53
2023/03/29 07:11:22;;;;;;;5.90;3.70;;;;;;;17.16;43.44;100957.88;102564;278;120391;-59
2023/03/29 07:14:01;;;;;;;5.30;3.40;;;;;;;17.59;42.30;100954.52;102603;278;105280;-59
2023/03/29 07:16:47;;;;;;;6.60;3.70;;;;;;;18.22;41.87;100951.79;102524;279;113505;-57
2023/03/29 07:19:24;;;;;;;4.40;3.20;;;;;;;18.67;40.61;100951.38;102586;278;95056;-59
2023/03/29 07:22:06;;;;;;;6.50;4.20;;;;;;;18.37;40.05;100953.50;102611;278;98091;-61
2023/03/29 07:24:50;;;;;;;6.30;3.20;;;;;;;18.39;40.05;100951.31;102536;279;121268;-59
2023/03/29 07:27:28;;;;;;;4.60;3.00;;;;;;;18.21;39.65;100949.95;102529;278;105974;-53
2023/03/29 07:30:09;;;;;;;5.20;3.30;;;;;;;18.27;39.48;100951.23;102525;278;113946;-54
2023/03/29 07:32:49;;;;;;;4.70;3.40;;;;;;;18.57;39.17;100949.71;102501;278;94665;-54
2023/03/29 07:35:29;;;;;;;4.90;3.80;;;;;;;19.43;38.44;100941.93;102519;278;98045;-55
2023/03/29 07:38:11;;;;;;;4.40;3.40;;;;;;;19.67;38.41;100938.73;102582;278;119610;-60
2023/03/29 07:40:50;;;;;;;5.10;3.60;;;;;;;19.98;37.83;100941.95;102418;280;104536;-59
2023/03/29 07:43:25;;;;;;;5.70;2.90;;;;;;;20.67;37.21;100942.57;102371;280;113815;-58
2023/03/29 07:46:05;;;;;;;7.90;3.20;;;;;;;21.34;36.89;100941.93;102383;280;94021;-59
2023/03/29 07:48:48;;;;;;;5.10;3.60;;;;;;;20.73;36.20;100942.44;102408;280;96940;-61
2023/03/29 07:51:35;;;;;;;4.30;2.90;;;;;;;20.82;36.20;100943.66;102416;268;119800;-56
2023/03/29 07:54:20;;;;;;;4.00;2.50;;;;;;;21.05;36.02;100940.46;102364;280;105911;-55
2023/03/29 07:57:04;;;;;;;6.30;2.80;;;;;;;21.65;35.77;100938.75;102349;280;114160;-59
2023/03/29 07:59:46;;;;;;;5.90;2.20;;;;;;;21.56;35.20;100936.05;102381;280;94413;-58
2023/03/29 08:02:27;;;;;;;3.20;2.80;;;;;;;21.56;35.21;100935.13;102162;280;100677;-60
2023/03/29 08:05:06;;;;;;;3.20;2.40;;;;;;;21.73;33.53;100937.24;102392;280;119372;-60
2023/03/29 08:07:49;;;;;;;4.20;2.90;;;;;;;21.79;33.67;100930.23;102394;280;104403;-55
2023/03/29 08:10:29;;;;;;;3.40;2.40;;;;;;;21.61;33.42;100933.34;102323;280;114350;-56
2023/03/29 08:13:11;;;;;;;5.70;2.60;;;;;;;21.66;33.38;100928.16;102348;280;95025;-55
2023/03/29 08:15:54;;;;;;;5.40;3.20;;;;;;;21.96;33.11;100921.08;102353;280;96097;-55
2023/03/29 08:18:38;;;;;;;6.70;2.70;;;;;;;21.97;32.70;100918.40;102423;280;120726;-60
2023/03/29 08:21:19;;;;;;;3.50;1.80;;;;;;;21.93;32.83;100916.06;102436;280;105470;-58
2023/03/29 08:24:03;;;;;;;2.70;1.70;;;;;;;22.58;32.61;100915.77;102362;280;115587;-59
2023/03/29 08:26:43;;;;;;;4.30;2.40;;;;;;;22.70;32.14;100911.64;102356;280;94742;-59
2023/03/29 08:29:23;;;;;;;3.50;2.20;;;;;;;21.28;31.48;100911.96;102363;280;97941;-58
2023/03/29 08:32:01;;;;;;;6.50;2.70;;;;;;;20.51;31.60;100914.81;102380;280;119088;-55
2023/03/29 08:34:44;;;;;;;2.90;1.50;;;;;;;20.60;31.10;100915.39;102340;280;105896;-54
2023/03/29 08:37:23;;;;;;;3.00;2.00;;;;;;;19.66;30.82;100913.65;102326;280;115121;-54
2023/03/29 08:40:00;;;;;;;3.60;2.10;;;;;;;19.89;30.84;100911.14;102449;279;94848;-54
2023/03/29 08:43:13;;;;;;;2.50;1.80;;;;;;;20.43;30.94;100911.92;102485;278;97744;-53
2023/03/29 08:46:12;;;;;;;2.10;1.60;;;;;;;20.57;30.63;100909.98;102539;278;119888;-55
2023/03/29 08:49:01;;;;;;;2.00;1.50;;;;;;;21.05;29.83;100904.59;102514;278;105117;-54
2023/03/29 08:51:49;;;;;;;3.60;1.80;;;;;;;21.13;29.69;100902.69;102495;279;113665;-58
2023/03/29 08:54:29;;;;;;;5.00;2.00;;;;;;;21.25;28.72;100901.30;102493;278;93604;-59
2023/03/29 08:57:14;;;;;;;3.60;1.70;;;;;;;21.28;29.11;100895.24;102517;278;97595;-58
2023/03/29 09:00:01;;;;;;;2.70;1.90;;;;;;;21.87;29.09;100898.09;102510;278;120913;-58
2023/03/29 09:02:41;;;;;;;2.40;1.60;;;;;;;21.47;29.12;100902.19;102548;278;104691;-58
2023/03/29 09:05:32;;;;;;;3.20;2.00;;;;;;;21.37;29.15;100900.36;102510;278;115026;-58
2023/03/29 09:08:19;;;;;;;3.50;2.30;;;;;;;21.36;28.98;100896.58;102502;279;94493;-53
2023/03/29 09:11:17;;;;;;;4.10;1.70;;;;;;;21.72;28.87;100894.31;102552;279;97970;-54
2023/03/29 09:14:04;;;;;;;3.00;2.00;;;;;;;21.98;28.00;100896.30;102490;279;120659;-54
2023/03/29 09:16:50;;;;;;;1.90;1.10;;;;;;;21.75;27.12;100896.52;102478;278;106100;-59
2023/03/29 09:19:44;;;;;;;3.80;1.40;;;;;;;20.98;25.18;100891.94;102522;278;114284;-58
2023/03/29 09:22:36;;;;;;;2.70;1.40;;;;;;;21.09;26.29;100893.73;102530;279;94201;-58
2023/03/29 09:25:23;;;;;;;2.20;1.40;;;;;;;21.52;25.94;100889.80;102624;278;97433;-59
2023/03/29 09:28:05;;;;;;;2.40;1.20;;;;;;;21.40;25.92;100885.25;102533;278;118669;-58
2023/03/29 09:30:58;;;;;;;2.10;1.40;;;;;;;21.51;25.21;100878.52;102491;279;105662;-57
2023/03/29 09:33:42;;;;;;;2.40;1.70;;;;;;;21.25;25.33;100876.40;102688;278;114552;-62
2023/03/29 09:36:28;;;;;;;4.10;2.40;;;;;;;21.24;25.49;100879.69;102572;278;92888;-54
2023/03/29 09:39:13;;;;;;;2.50;1.80;;;;;;;21.24;25.41;100877.27;102499;278;96697;-54
2023/03/29 09:41:59;;;;;;;4.00;1.50;;;;;;;20.75;24.92;100878.05;102529;278;119976;-54
2023/03/29 09:44:42;;;;;;;5.40;2.50;;;;;;;20.22;24.84;100878.90;102511;278;105294;-55
2023/03/29 09:47:25;;;;;;;2.80;1.70;;;;;;;19.56;24.52;100876.40;102494;278;114950;-54
2023/03/29 09:50:14;;;;;;;2.20;1.30;;;;;;;18.61;23.54;100870.73;102490;278;94974;-54
2023/03/29 09:52:59;;;;;;;4.60;2.50;;;;;;;17.68;24.87;100871.42;102490;278;97739;-55
2023/03/29 09:55:40;;;;;;;3.90;2.70;;;;;;;16.80;24.96;100869.06;102555;278;118663;-55
2023/03/29 09:58:22;;;;;;;5.00;2.40;;;;;;;16.22;25.51;100870.59;102523;279;105532;-54
2023/03/29 10:01:04;;;;;;;3.30;2.20;;;;;;;15.53;25.52;100868.13;102514;279;115160;-59
2023/03/29 10:03:40;;;;;;;4.80;2.70;;;;;;;14.91;25.25;100872.61;102558;278;95049;-60
2023/03/29 10:06:18;;;;;;;4.20;2.50;;;;;;;14.33;25.85;100870.85;102551;278;98068;-57
2023/03/29 10:08:58;;;;;;;5.90;3.10;;;;;;;13.92;25.46;100867.52;102504;279;119594;-58
2023/03/29 10:11:39;;;;;;;5.70;3.20;;;;;;;13.34;25.35;100865.11;102509;278;104886;-54
2023/03/29 10:14:29;;;;;;;4.60;2.70;;;;;;;12.78;25.27;100869.35;102484;278;114990;-54
2023/03/29 10:17:20;;;;;;;4.10;2.70;;;;;;;12.16;26.54;100874.52;102508;278;95383;-55
2023/03/29 10:20:02;;;;;;;5.60;2.70;;;;;;;12.38;27.40;100867.35;102509;278;98282;-54
2023/03/29 10:22:48;;;;;;;6.10;3.90;;;;;;;12.35;27.69;100872.61;102395;280;122271;-53
2023/03/29 10:25:39;;;;;;;6.50;2.90;;;;;;;12.14;27.44;100871.90;102539;279;105425;-53
2023/03/29 10:28:25;;;;;;;3.70;2.60;;;;;;;11.90;28.21;100872.41;102480;278;112715;-54
2023/03/29 10:31:06;;;;;;;4.70;3.00;;;;;;;11.84;28.42;100870.64;102511;278;93177;-60
2023/03/29 10:33:44;;;;;;;6.20;3.10;;;;;;;11.73;28.31;100868.88;102659;278;97431;-60
2023/03/29 10:36:24;;;;;;;4.90;3.00;;;;;;;11.74;28.48;100869.97;102617;278;119367;-53
2023/03/29 10:39:09;;;;;;;7.10;3.30;;;;;;;11.80;28.94;100875.24;102488;308;105603;-52
2023/03/29 10:41:50;;;;;;;4.10;2.70;;;;;;;11.74;28.68;100869.41;102535;278;113991;-58
2023/03/29 10:44:34;;;;;;;4.00;2.70;;;;;;;11.56;29.15;100867.66;102505;278;94340;-57
2023/03/29 10:47:21;;;;;;;5.30;2.20;;;;;;;11.36;28.95;100863.75;102611;278;97740;-59
2023/03/29 10:50:06;;;;;;;3.40;1.90;;;;;;;11.17;29.71;100865.48;102722;279;119332;-59
2023/03/29 10:52:50;;;;;;;3.20;2.00;;;;;;;11.20;29.46;100865.91;102476;279;105694;-53
2023/03/29 10:55:37;;;;;;;3.60;2.00;;;;;;;11.22;29.32;100860.97;101861;268;115014;-54
2023/03/29 10:58:33;;;;;;;3.70;1.70;;;;;;;10.98;28.83;100862.71;102575;278;94750;-54
2023/03/29 11:01:18;;;;;;;4.50;2.00;;;;;;;10.98;28.99;100858.09;102525;278;97613;-55
2023/03/29 11:04:19;;;;;;;4.80;2.00;;;;;;;10.89;29.27;100860.38;102501;278;119802;-54
2023/03/29 11:07:12;;;;;;;3.20;1.70;;;;;;;10.68;29.32;100855.83;102658;278;105359;-59
2023/03/29 11:09:55;;;;;;;3.80;1.90;;;;;;;10.75;29.67;100852.89;102691;279;114586;-59
2023/03/29 11:12:40;;;;;;;5.10;2.40;;;;;;;10.68;28.88;100845.77;102590;279;94782;-55
2023/03/29 11:15:38;;;;;;;3.90;2.70;;;;;;;10.45;29.57;100842.91;102512;279;98205;-54
2023/03/29 11:18:52;;;;;;;4.00;2.70;;;;;;;10.45;30.45;100842.58;102500;278;119935;-58
2023/03/29 11:21:39;;;;;;;4.90;2.40;;;;;;;10.47;30.38;100839.49;102505;278;105979;-57
2023/03/29 11:24:43;;;;;;;3.40;2.10;;;;;;;10.44;30.78;100833.33;102474;278;114728;-58
2023/03/29 11:27:32;;;;;;;3.50;1.90;;;;;;;10.45;30.38;100835.05;102518;278;95484;-58
2023/03/29 11:30:20;;;;;;;5.00;2.00;;;;;;;10.39;30.46;100834.45;102503;278;98226;-58
2023/03/29 11:33:09;;;;;;;3.60;2.50;;;;;;;10.18;30.44;100825.36;102506;278;120882;-54
2023/03/29 11:36:01;;;;;;;8.10;3.80;;;;;;;10.07;30.70;100823.16;102525;278;105689;-53
2023/03/29 11:38:45;;;;;;;4.40;2.80;;;;;;;10.07;30.56;100820.61;102637;278;114207;-59
2023/03/29 11:41:33;;;;;;;4.50;2.40;;;;;;;10.05;30.64;100822.54;102683;278;94315;-59
2023/03/29 11:44:24;;;;;;;3.80;2.40;;;;;;;10.05;29.93;100816.89;102696;278;97491;-59
2023/03/29 11:47:10;;;;;;;4.20;2.70;;;;;;;9.98;30.39;100813.79;102588;278;119681;-59
2023/03/29 11:49:50;;;;;;;4.20;2.70;;;;;;;9.90;30.45;100813.75;102644;278;105713;-58
2023/03/29 11:52:39;;;;;;;4.70;2.90;;;;;;;9.61;30.41;100813.38;102491;278;114917;-53
2023/03/29 11:55:21;;;;;;;4.40;2.20;;;;;;;9.58;30.70;100809.81;102527;278;94916;-53
2023/03/29 11:58:05;;;;;;;5.00;2.40;;;;;;;9.58;30.49;100806.72;102542;278;98213;-53
2023/03/29 12:00:46;;;;;;;6.10;2.80;;;;;;;9.57;30.97;100810.59;102478;279;120210;-54
2023/03/29 12:03:32;;;;;;;7.10;2.70;;;;;;;9.61;30.97;100810.33;102510;278;105867;-58
2023/03/29 12:06:21;;;;;;;5.90;3.50;;;;;;;9.64;31.00;100805.73;102488;278;114383;-52
2023/03/29 12:09:00;;;;;;;5.20;2.80;;;;;;;9.60;30.87;100802.86;102536;278;93398;-53
2023/03/29 12:11:48;;;;;;;4.80;2.50;;;;;;;9.61;30.69;100796.16;102499;278;97549;-54
2023/03/29 12:14:28;;;;;;;4.30;2.30;;;;;;;9.38;30.15;100798.77;102530;278;120256;-54
2023/03/29 12:17:15;;;;;;;4.10;2.70;;;;;;;9.30;30.40;100796.20;102555;278;104125;-54
2023/03/29 12:19:58;;;;;;;6.40;3.40;;;;;;;9.34;29.98;100794.36;102505;278;115208;-54
2023/03/29 12:22:41;;;;;;;5.50;4.00;;;;;;;9.15;29.88;100792.35;102611;278;94985;-59
2023/03/29 12:25:25;;;;;;;5.60;4.50;;;;;;;9.00;29.98;100788.92;102607;278;96877;-59
2023/03/29 12:28:28;;;;;;;6.60;3.70;;;;;;;9.00;30.53;100786.83;102558;278;119214;-54
2023/03/29 12:31:19;;;;;;;3.80;2.70;;;;;;;8.95;30.58;100775.08;102506;278;106013;-58